Arlington, Oregon
Current Conditions -  °F | °C
As of 4:19 AM on Sunday 25 Jan 2015 (Local Time) from KHRI Reporting Station
Haze Haze  
Wind Chill: 37°   Ceiling: Unl
Heat Index: 37°   Visibility: 1.5mi
Dew Point: 36°   Wind: 0mph
Humidity: 96%   Direction: NA
Pressure: 30.22"   Gusts: NA
Location:  45.72°N, 120.2°W
Report Text: KHRI 251219Z AUTO 00000KT 1 1/2SM BR CLR 03/02 A3022 RMK AO2 T00280022
Loading
Personal Weather Stations






























Interactive Weather Map New forecast layout! Learn more

10-Day Weather Forecast

Advertisements
Track Severe Weather on mobile